createdAt,value
2019-02-09T00:00:30.629Z,1.90
2019-02-09T00:04:34.883Z,2.90
2019-02-09T00:08:38.953Z,3.60
2019-02-09T00:12:43.002Z,1.40
2019-02-09T00:16:47.081Z,2.47
2019-02-09T00:20:51.237Z,1.23
2019-02-09T00:24:55.181Z,1.70
2019-02-09T00:28:59.178Z,2.17
2019-02-09T00:33:03.253Z,1.40
2019-02-09T00:37:07.246Z,3.07
2019-02-09T00:41:11.179Z,1.40
2019-02-09T00:45:15.334Z,1.43
2019-02-09T00:49:19.259Z,2.53
2019-02-09T00:53:23.142Z,2.70
2019-02-09T00:57:27.125Z,1.10
2019-02-09T01:01:32.163Z,1.60
2019-02-09T01:05:37.798Z,2.57
2019-02-09T01:09:42.084Z,0.80
2019-02-09T01:13:45.969Z,1.20
2019-02-09T01:17:49.992Z,2.07
2019-02-09T01:21:53.914Z,2.40
2019-02-09T01:25:57.906Z,1.67
2019-02-09T01:30:02.736Z,1.13
2019-02-09T01:34:07.128Z,3.60
2019-02-09T01:38:11.300Z,1.13
2019-02-09T01:42:15.208Z,2.87
2019-02-09T01:46:19.134Z,4.00
2019-02-09T01:50:23.544Z,1.13
2019-02-09T01:54:27.413Z,1.07
2019-02-09T01:58:31.365Z,1.10
2019-02-09T02:02:35.341Z,0.93
2019-02-09T02:06:40.793Z,1.13
2019-02-09T02:10:44.883Z,1.93
2019-02-09T02:14:48.884Z,2.33
2019-02-09T02:18:52.896Z,1.13
2019-02-09T02:22:57.033Z,1.30
2019-02-09T02:27:00.992Z,1.00
2019-02-09T02:31:04.966Z,1.63
2019-02-09T02:35:08.934Z,1.30
2019-02-09T02:39:12.890Z,1.10
2019-02-09T02:43:16.781Z,0.80
2019-02-09T02:47:20.704Z,2.23
2019-02-09T02:51:24.583Z,0.80
2019-02-09T02:55:28.698Z,1.00
2019-02-09T02:59:32.661Z,0.77
2019-02-09T03:03:36.554Z,0.70
2019-02-09T03:07:40.635Z,0.70
2019-02-09T03:11:44.646Z,0.60
2019-02-09T03:15:48.682Z,1.37
2019-02-09T03:19:52.642Z,0.50
2019-02-09T03:23:56.743Z,0.60
2019-02-09T03:28:00.873Z,1.27
2019-02-09T03:32:04.870Z,0.60
2019-02-09T03:36:08.812Z,0.60
2019-02-09T03:40:14.080Z,0.60
2019-02-09T03:44:18.159Z,0.67
2019-02-09T03:48:22.068Z,0.60
2019-02-09T03:52:25.990Z,1.07
2019-02-09T03:56:29.909Z,0.60
2019-02-09T04:00:56.112Z,0.50
2019-02-09T04:05:00.322Z,0.63
2019-02-09T04:09:06.816Z,0.60
2019-02-09T04:13:10.795Z,0.87
2019-02-09T04:17:14.699Z,0.63
2019-02-09T04:21:21.571Z,0.73
2019-02-09T04:25:25.637Z,0.87
2019-02-09T04:29:29.655Z,2.00
2019-02-09T04:33:33.609Z,0.60
2019-02-09T04:37:37.696Z,0.87
2019-02-09T04:41:41.693Z,3.47
2019-02-09T04:45:45.634Z,1.00
2019-02-09T04:49:49.541Z,1.40
2019-02-09T04:53:53.638Z,0.70
2019-02-09T04:57:57.555Z,0.97
2019-02-09T05:02:01.604Z,0.87
2019-02-09T05:06:05.739Z,1.23
2019-02-09T05:10:10.467Z,1.57
2019-02-09T05:14:14.546Z,2.53
2019-02-09T05:18:18.529Z,1.50
2019-02-09T05:22:22.414Z,0.60
2019-02-09T05:26:26.509Z,2.63
2019-02-09T05:30:30.646Z,3.87
2019-02-09T05:34:34.580Z,1.10
2019-02-09T05:38:38.725Z,0.97
2019-02-09T05:42:42.624Z,2.33
2019-02-09T05:46:46.626Z,0.60
2019-02-09T05:50:50.525Z,1.10
2019-02-09T05:54:54.518Z,1.00
2019-02-09T05:58:58.541Z,1.87
2019-02-09T06:03:02.797Z,1.00
2019-02-09T06:07:06.842Z,2.17
2019-02-09T06:11:11.034Z,5.07
2019-02-09T06:15:15.985Z,1.47
2019-02-09T06:19:20.072Z,2.17
2019-02-09T06:23:24.015Z,1.57
2019-02-09T06:27:28.018Z,3.47
2019-02-09T06:31:40.311Z,2.20
2019-02-09T06:35:37.725Z,1.90
2019-02-09T06:39:41.754Z,2.43
2019-02-09T06:43:45.698Z,5.60
2019-02-09T06:47:49.723Z,1.43
2019-02-09T06:51:53.695Z,2.30
2019-02-09T06:55:57.602Z,3.47
2019-02-09T07:00:01.575Z,0.60
2019-02-09T07:04:05.576Z,0.80
2019-02-09T07:08:09.739Z,1.33
2019-02-09T07:12:13.714Z,2.93
2019-02-09T07:16:17.674Z,1.17
2019-02-09T07:20:21.586Z,2.67
2019-02-09T07:24:25.513Z,2.30
2019-02-09T07:28:29.399Z,2.60
2019-02-09T07:32:33.452Z,2.17
2019-02-09T07:36:37.371Z,3.17
2019-02-09T07:40:41.377Z,6.87
2019-02-09T07:44:45.434Z,4.37
2019-02-09T07:48:49.424Z,4.13
2019-02-09T07:52:53.432Z,3.77
2019-02-09T07:56:57.337Z,3.23
2019-02-09T08:01:01.387Z,3.10
2019-02-09T08:05:05.702Z,8.40
2019-02-09T08:09:12.437Z,4.00
2019-02-09T08:13:16.482Z,2.57
2019-02-09T08:17:20.491Z,5.23
2019-02-09T08:21:25.587Z,2.27
2019-02-09T08:25:30.465Z,3.03
2019-02-09T08:29:34.426Z,1.57
2019-02-09T08:33:38.541Z,2.57
2019-02-09T08:37:42.574Z,1.47
2019-02-09T08:41:46.641Z,4.73
2019-02-09T08:45:50.553Z,1.43
2019-02-09T08:49:54.662Z,2.73
2019-02-09T08:53:58.552Z,4.73
2019-02-09T08:58:02.617Z,2.93
2019-02-09T09:02:06.650Z,5.57
2019-02-09T09:06:10.727Z,2.90
2019-02-09T09:10:15.034Z,3.50
2019-02-09T09:14:19.061Z,2.13
2019-02-09T09:18:23.227Z,2.87
2019-02-09T09:22:27.143Z,3.13
2019-02-09T09:26:31.097Z,4.63
2019-02-09T09:30:35.082Z,3.27
2019-02-09T09:34:39.103Z,3.80
2019-02-09T09:38:43.236Z,3.73
2019-02-09T09:42:47.254Z,4.33
2019-02-09T09:46:51.133Z,3.53
2019-02-09T09:50:55.202Z,3.73
2019-02-09T09:54:59.243Z,6.83
2019-02-09T09:59:03.133Z,5.30
2019-02-09T10:03:08.049Z,5.50
2019-02-09T10:07:12.195Z,4.77
2019-02-09T10:11:17.929Z,3.27
2019-02-09T10:15:25.113Z,4.63
2019-02-09T10:19:29.011Z,6.97
2019-02-09T10:23:32.973Z,6.43
2019-02-09T10:27:36.959Z,4.83
2019-02-09T10:31:41.029Z,6.33
2019-02-09T10:35:45.083Z,5.03
2019-02-09T10:39:48.995Z,6.07
2019-02-09T10:43:53.434Z,8.07
2019-02-09T10:47:57.782Z,3.17
2019-02-09T10:52:01.709Z,6.27
2019-02-09T10:56:06.049Z,7.40
2019-02-09T11:00:12.258Z,5.97
2019-02-09T11:04:16.308Z,4.00
2019-02-09T11:08:20.483Z,3.90
2019-02-09T11:12:24.583Z,6.37
2019-02-09T11:16:31.522Z,4.87
2019-02-09T11:20:35.764Z,5.73
2019-02-09T11:24:39.644Z,3.67
2019-02-09T11:28:43.567Z,5.40
2019-02-09T11:32:47.650Z,2.80
2019-02-09T11:36:51.574Z,5.20
2019-02-09T11:40:55.726Z,5.17
2019-02-09T11:44:59.645Z,4.83
2019-02-09T11:49:03.623Z,4.00
2019-02-09T11:53:07.711Z,5.50
2019-02-09T11:57:11.847Z,6.63
2019-02-09T12:01:16.518Z,4.47
2019-02-09T12:05:20.936Z,4.57
2019-02-09T12:09:25.187Z,6.60
2019-02-09T12:13:29.262Z,4.50
2019-02-09T12:17:33.307Z,4.43
2019-02-09T12:21:37.411Z,4.10
2019-02-09T12:25:41.804Z,3.83
2019-02-09T12:29:45.916Z,6.27
2019-02-09T12:33:49.959Z,6.43
2019-02-09T12:37:54.151Z,4.03
2019-02-09T12:41:58.235Z,7.07
2019-02-09T12:46:02.337Z,5.17
2019-02-09T12:50:06.934Z,3.90
2019-02-09T12:54:11.111Z,4.30
2019-02-09T12:58:15.451Z,8.33
2019-02-09T13:02:19.825Z,3.90
2019-02-09T13:06:31.115Z,4.93
2019-02-09T13:10:41.446Z,4.27
2019-02-09T13:14:52.307Z,3.30
2019-02-09T13:19:20.924Z,5.17
2019-02-09T13:23:33.213Z,1.63
2019-02-09T13:27:42.899Z,5.07
2019-02-09T13:31:47.009Z,3.27
2019-02-09T13:35:50.863Z,2.57
2019-02-09T13:39:55.804Z,3.90
2019-02-09T13:44:06.364Z,5.83
2019-02-09T13:48:22.501Z,3.73
2019-02-09T13:52:39.715Z,5.73
2019-02-09T13:56:50.800Z,5.00
2019-02-09T14:01:03.682Z,4.10
2019-02-09T14:05:10.039Z,6.17
2019-02-09T14:09:14.001Z,4.43
2019-02-09T14:13:17.983Z,5.80
2019-02-09T14:17:22.017Z,2.70
2019-02-09T14:21:25.924Z,2.53
2019-02-09T14:25:29.933Z,2.50
2019-02-09T14:29:35.093Z,2.97
2019-02-09T14:33:40.285Z,2.47
2019-02-09T14:37:44.343Z,6.03
2019-02-09T14:41:48.503Z,5.13
2019-02-09T14:45:52.513Z,8.77
2019-02-09T14:49:56.473Z,5.23
2019-02-09T14:54:00.489Z,2.93
2019-02-09T14:58:04.614Z,2.73
2019-02-09T15:02:08.859Z,2.80
2019-02-09T15:06:12.890Z,2.07
2019-02-09T15:10:17.729Z,6.03
2019-02-09T15:14:22.893Z,5.30
2019-02-09T15:18:26.922Z,4.90
2019-02-09T15:22:30.942Z,6.13
2019-02-09T15:26:35.062Z,3.23
2019-02-09T15:30:39.158Z,3.27
2019-02-09T15:34:43.145Z,5.63
2019-02-09T15:38:47.054Z,2.77
2019-02-09T15:42:51.190Z,3.67
2019-02-09T15:46:55.870Z,6.70
2019-02-09T15:50:59.781Z,5.87
2019-02-09T15:55:03.998Z,4.53
2019-02-09T15:59:07.960Z,5.83
2019-02-09T16:03:12.017Z,4.90
2019-02-09T16:07:16.112Z,3.20
2019-02-09T16:11:21.222Z,3.17
2019-02-09T16:15:25.878Z,3.73
2019-02-09T16:19:29.912Z,4.67
2019-02-09T16:23:33.884Z,5.70
2019-02-09T16:27:37.830Z,4.63
2019-02-09T16:31:41.746Z,3.50
2019-02-09T16:35:45.745Z,4.03
2019-02-09T16:39:49.658Z,4.30
2019-02-09T16:43:53.957Z,3.47
2019-02-09T16:47:58.006Z,2.87
2019-02-09T16:52:02.141Z,1.73
2019-02-09T16:56:06.067Z,2.87
2019-02-09T17:00:11.712Z,2.53
2019-02-09T17:04:15.798Z,1.77
2019-02-09T17:08:22.403Z,1.37
2019-02-09T17:12:27.429Z,4.73
2019-02-09T17:16:31.317Z,6.00
2019-02-09T17:20:35.185Z,2.90
2019-02-09T17:24:39.245Z,4.30
2019-02-09T17:28:43.339Z,3.93
2019-02-09T17:32:47.314Z,2.70
2019-02-09T17:36:51.398Z,5.07
2019-02-09T17:40:55.508Z,3.10
2019-02-09T17:44:59.466Z,2.40
2019-02-09T17:49:03.453Z,1.63
2019-02-09T17:53:07.419Z,2.83
2019-02-09T17:57:11.421Z,2.47
2019-02-09T18:01:15.442Z,1.90
2019-02-09T18:05:20.055Z,7.10
2019-02-09T18:09:24.090Z,3.27
2019-02-09T18:13:28.085Z,1.57
2019-02-09T18:17:33.117Z,5.57
2019-02-09T18:21:38.720Z,6.83
2019-02-09T18:25:42.729Z,3.63
2019-02-09T18:29:46.714Z,3.47
2019-02-09T18:33:50.669Z,4.13
2019-02-09T18:37:54.637Z,3.73
2019-02-09T18:41:58.754Z,1.50
2019-02-09T18:46:02.691Z,3.50
2019-02-09T18:50:07.549Z,2.73
2019-02-09T18:54:18.377Z,2.60
2019-02-09T18:58:22.580Z,2.20
2019-02-09T19:02:27.835Z,2.80
2019-02-09T19:06:33.258Z,6.40
2019-02-09T19:10:37.456Z,2.10
2019-02-09T19:14:41.459Z,5.60
2019-02-09T19:18:45.367Z,3.70
2019-02-09T19:22:49.345Z,4.53
2019-02-09T19:26:53.273Z,2.87
2019-02-09T19:30:58.700Z,3.60
2019-02-09T19:35:02.935Z,3.90
2019-02-09T19:39:08.002Z,3.97
2019-02-09T19:43:11.962Z,4.60
2019-02-09T19:47:15.871Z,3.40
2019-02-09T19:51:19.758Z,4.90
2019-02-09T19:55:24.838Z,5.23
2019-02-09T19:59:28.772Z,3.60
2019-02-09T20:03:32.708Z,8.97
2019-02-09T20:07:36.617Z,3.67
2019-02-09T20:11:40.705Z,5.43
2019-02-09T20:15:44.745Z,3.90
2019-02-09T20:19:48.797Z,3.10
2019-02-09T20:23:52.835Z,6.30
2019-02-09T20:27:56.815Z,5.80
2019-02-09T20:32:00.898Z,2.93
2019-02-09T20:36:04.981Z,6.97
2019-02-09T20:40:12.258Z,4.30
2019-02-09T20:44:16.537Z,2.37
2019-02-09T20:48:20.839Z,4.90
2019-02-09T20:52:24.775Z,4.30
2019-02-09T20:56:29.961Z,5.03
2019-02-09T21:00:34.007Z,10.10
2019-02-09T21:04:38.169Z,7.47
2019-02-09T21:08:42.163Z,7.43
2019-02-09T21:12:46.217Z,5.93
2019-02-09T21:16:51.757Z,6.83
2019-02-09T21:20:56.069Z,7.83
2019-02-09T21:25:00.059Z,8.87
2019-02-09T21:29:04.071Z,8.30
2019-02-09T21:33:08.010Z,7.93
2019-02-09T21:37:12.050Z,4.50
2019-02-09T21:41:15.967Z,8.17
2019-02-09T21:45:20.514Z,5.43
2019-02-09T21:49:25.825Z,6.33
2019-02-09T21:53:29.956Z,5.47
2019-02-09T21:57:34.102Z,8.37
2019-02-09T22:01:37.962Z,5.77
2019-02-09T22:05:41.852Z,8.43
2019-02-09T22:09:45.882Z,6.93
2019-02-09T22:13:50.060Z,8.10
2019-02-09T22:17:53.973Z,9.47
2019-02-09T22:21:58.319Z,5.73
2019-02-09T22:26:02.539Z,5.20
2019-02-09T22:30:07.603Z,4.30
2019-02-09T22:34:11.763Z,7.10
2019-02-09T22:38:15.732Z,5.03
2019-02-09T22:42:19.778Z,4.67
2019-02-09T22:46:23.804Z,4.17
2019-02-09T22:50:32.486Z,6.97
2019-02-09T22:54:36.465Z,7.60
2019-02-09T22:58:40.423Z,7.93
2019-02-09T23:02:46.681Z,6.00
2019-02-09T23:06:54.636Z,6.70
2019-02-09T23:10:58.919Z,4.53
2019-02-09T23:15:02.783Z,7.63
2019-02-09T23:19:06.962Z,10.63
2019-02-09T23:23:11.001Z,5.73
2019-02-09T23:27:14.932Z,3.17
2019-02-09T23:31:22.594Z,3.30
2019-02-09T23:35:26.546Z,4.90
2019-02-09T23:39:30.501Z,4.27
2019-02-09T23:43:34.514Z,8.77
2019-02-09T23:47:38.377Z,4.57
2019-02-09T23:51:42.412Z,10.40
2019-02-09T23:55:49.913Z,6.13
2019-02-09T23:59:53.817Z,6.23
